sensor_id;sensor_type;location;lat;lon;timestamp;pressure;altitude;pressure_sealevel;temperature;humidity
68594;BME280;55563;52.416;13.548;2023-02-18T00:01:30;101087.56;;;6.47;100.00
68594;BME280;55563;52.416;13.548;2023-02-18T00:03:31;101079.94;;;6.45;100.00
68594;BME280;55563;52.416;13.548;2023-02-18T00:05:32;101088.22;;;6.42;100.00
68594;BME280;55563;52.416;13.548;2023-02-18T00:07:34;101082.75;;;6.44;100.00
68594;BME280;55563;52.416;13.548;2023-02-18T00:09:34;101082.53;;;6.45;100.00
68594;BME280;55563;52.416;13.548;2023-02-18T00:11:36;101080.59;;;6.41;100.00
68594;BME280;55563;52.416;13.548;2023-02-18T00:13:37;101088.97;;;6.43;100.00
68594;BME280;55563;52.416;13.548;2023-02-18T00:15:38;101093.50;;;6.36;100.00
68594;BME280;55563;52.416;13.548;2023-02-18T00:17:39;101078.84;;;6.35;100.00
68594;BME280;55563;52.416;13.548;2023-02-18T00:19:40;101092.91;;;6.34;100.00
68594;BME280;55563;52.416;13.548;2023-02-18T00:21:41;101083.13;;;6.29;100.00
68594;BME280;55563;52.416;13.548;2023-02-18T00:23:42;101066.25;;;6.32;100.00
68594;BME280;55563;52.416;13.548;2023-02-18T00:25:42;101086.25;;;6.38;100.00
68594;BME280;55563;52.416;13.548;2023-02-18T00:27:43;101099.53;;;6.36;100.00
68594;BME280;55563;52.416;13.548;2023-02-18T00:29:44;101099.72;;;6.35;100.00
68594;BME280;55563;52.416;13.548;2023-02-18T00:31:45;101101.47;;;6.41;100.00
68594;BME280;55563;52.416;13.548;2023-02-18T00:33:45;101094.84;;;6.38;100.00
68594;BME280;55563;52.416;13.548;2023-02-18T00:35:46;101092.50;;;6.37;100.00
68594;BME280;55563;52.416;13.548;2023-02-18T00:37:51;101087.69;;;6.34;100.00
68594;BME280;55563;52.416;13.548;2023-02-18T00:39:52;101091.53;;;6.31;100.00
68594;BME280;55563;52.416;13.548;2023-02-18T00:41:53;101093.00;;;6.27;100.00
68594;BME280;55563;52.416;13.548;2023-02-18T00:43:54;101093.81;;;6.28;100.00
68594;BME280;55563;52.416;13.548;2023-02-18T00:45:55;101102.06;;;6.25;100.00
68594;BME280;55563;52.416;13.548;2023-02-18T00:47:56;101105.56;;;6.19;100.00
68594;BME280;55563;52.416;13.548;2023-02-18T00:49:57;101096.78;;;6.13;100.00
68594;BME280;55563;52.416;13.548;2023-02-18T00:51:57;101104.66;;;6.06;100.00
68594;BME280;55563;52.416;13.548;2023-02-18T00:53:58;101107.88;;;6.08;100.00
68594;BME280;55563;52.416;13.548;2023-02-18T00:55:59;101105.91;;;6.04;100.00
68594;BME280;55563;52.416;13.548;2023-02-18T00:58:00;101105.75;;;5.99;100.00
68594;BME280;55563;52.416;13.548;2023-02-18T01:00:03;101119.44;;;5.94;100.00
68594;BME280;55563;52.416;13.548;2023-02-18T01:02:05;101117.03;;;5.93;100.00
68594;BME280;55563;52.416;13.548;2023-02-18T01:04:07;101114.88;;;5.90;100.00
68594;BME280;55563;52.416;13.548;2023-02-18T01:06:08;101110.06;;;5.87;100.00
68594;BME280;55563;52.416;13.548;2023-02-18T01:08:11;101095.16;;;5.94;100.00
68594;BME280;55563;52.416;13.548;2023-02-18T01:10:11;101110.66;;;5.89;100.00
68594;BME280;55563;52.416;13.548;2023-02-18T01:12:12;101112.28;;;5.83;100.00
68594;BME280;55563;52.416;13.548;2023-02-18T01:14:13;101112.72;;;5.80;100.00
68594;BME280;55563;52.416;13.548;2023-02-18T01:16:13;101105.69;;;5.81;100.00
68594;BME280;55563;52.416;13.548;2023-02-18T01:18:14;101116.91;;;5.81;100.00
68594;BME280;55563;52.416;13.548;2023-02-18T01:20:15;101104.09;;;5.80;100.00
68594;BME280;55563;52.416;13.548;2023-02-18T01:22:15;101104.31;;;5.78;100.00
68594;BME280;55563;52.416;13.548;2023-02-18T01:24:16;101103.94;;;5.75;100.00
68594;BME280;55563;52.416;13.548;2023-02-18T01:26:16;101105.41;;;5.70;100.00
68594;BME280;55563;52.416;13.548;2023-02-18T01:28:17;101112.25;;;5.65;100.00
68594;BME280;55563;52.416;13.548;2023-02-18T01:30:18;101107.63;;;5.67;100.00
68594;BME280;55563;52.416;13.548;2023-02-18T01:32:19;101099.16;;;5.71;100.00
68594;BME280;55563;52.416;13.548;2023-02-18T01:34:19;101094.53;;;5.74;100.00
68594;BME280;55563;52.416;13.548;2023-02-18T01:36:20;101105.81;;;5.67;100.00
68594;BME280;55563;52.416;13.548;2023-02-18T01:38:21;101096.38;;;5.66;100.00
68594;BME280;55563;52.416;13.548;2023-02-18T01:40:24;101104.84;;;5.62;100.00
68594;BME280;55563;52.416;13.548;2023-02-18T01:42:28;101105.25;;;5.65;100.00
68594;BME280;55563;52.416;13.548;2023-02-18T01:44:33;101106.44;;;5.63;100.00
68594;BME280;55563;52.416;13.548;2023-02-18T01:46:33;101099.63;;;5.62;100.00
68594;BME280;55563;52.416;13.548;2023-02-18T01:48:41;101102.78;;;5.70;100.00
68594;BME280;55563;52.416;13.548;2023-02-18T01:50:44;101108.63;;;5.66;100.00
68594;BME280;55563;52.416;13.548;2023-02-18T01:52:46;101107.63;;;5.67;100.00
68594;BME280;55563;52.416;13.548;2023-02-18T01:54:51;101109.41;;;5.66;100.00
68594;BME280;55563;52.416;13.548;2023-02-18T01:56:56;101111.22;;;5.66;100.00
68594;BME280;55563;52.416;13.548;2023-02-18T01:59:02;101115.03;;;5.70;100.00
68594;BME280;55563;52.416;13.548;2023-02-18T02:01:04;101119.66;;;5.68;100.00
68594;BME280;55563;52.416;13.548;2023-02-18T02:03:05;101112.25;;;5.65;100.00
68594;BME280;55563;52.416;13.548;2023-02-18T02:05:07;101114.06;;;5.64;100.00
68594;BME280;55563;52.416;13.548;2023-02-18T02:07:10;101112.91;;;5.60;100.00
68594;BME280;55563;52.416;13.548;2023-02-18T02:09:13;101115.28;;;5.62;100.00
68594;BME280;55563;52.416;13.548;2023-02-18T02:14:07;101119.69;;;5.61;100.00
68594;BME280;55563;52.416;13.548;2023-02-18T02:16:51;101104.69;;;5.57;100.00
68594;BME280;55563;52.416;13.548;2023-02-18T02:18:45;101107.91;;;5.59;100.00
68594;BME280;55563;52.416;13.548;2023-02-18T02:24:18;101109.91;;;5.57;100.00
68594;BME280;55563;52.416;13.548;2023-02-18T02:26:29;101120.16;;;5.52;100.00
68594;BME280;55563;52.416;13.548;2023-02-18T02:31:44;101116.16;;;5.56;100.00
68594;BME280;55563;52.416;13.548;2023-02-18T02:38:59;101120.16;;;5.52;100.00
68594;BME280;55563;52.416;13.548;2023-02-18T02:48:45;101124.44;;;5.46;100.00
68594;BME280;55563;52.416;13.548;2023-02-18T02:51:14;101125.84;;;5.42;100.00
68594;BME280;55563;52.416;13.548;2023-02-18T02:53:05;101123.84;;;5.44;100.00
68594;BME280;55563;52.416;13.548;2023-02-18T02:55:11;101130.91;;;5.37;100.00
68594;BME280;55563;52.416;13.548;2023-02-18T02:59:27;101141.13;;;5.39;100.00
68594;BME280;55563;52.416;13.548;2023-02-18T03:01:40;101137.88;;;5.43;100.00
68594;BME280;55563;52.416;13.548;2023-02-18T03:04:11;101136.91;;;5.38;100.00
68594;BME280;55563;52.416;13.548;2023-02-18T03:09:15;101138.41;;;5.27;100.00
68594;BME280;55563;52.416;13.548;2023-02-18T03:11:16;101128.00;;;5.27;100.00
68594;BME280;55563;52.416;13.548;2023-02-18T03:16:42;101118.34;;;5.27;100.00
68594;BME280;55563;52.416;13.548;2023-02-18T03:21:17;101114.53;;;5.30;100.00
68594;BME280;55563;52.416;13.548;2023-02-18T03:23:33;101116.59;;;5.21;100.00
68594;BME280;55563;52.416;13.548;2023-02-18T03:25:36;101126.75;;;5.30;100.00
68594;BME280;55563;52.416;13.548;2023-02-18T03:27:43;101120.91;;;5.34;100.00
68594;BME280;55563;52.416;13.548;2023-02-18T03:29:50;101117.50;;;5.34;100.00
68594;BME280;55563;52.416;13.548;2023-02-18T03:31:57;101122.94;;;5.32;100.00
68594;BME280;55563;52.416;13.548;2023-02-18T03:34:04;101116.72;;;5.33;100.00
68594;BME280;55563;52.416;13.548;2023-02-18T03:36:08;101121.50;;;5.36;100.00
68594;BME280;55563;52.416;13.548;2023-02-18T03:38:17;101122.09;;;5.38;100.00
68594;BME280;55563;52.416;13.548;2023-02-18T03:40:19;101113.69;;;5.36;100.00
68594;BME280;55563;52.416;13.548;2023-02-18T03:42:25;101119.09;;;5.35;100.00
68594;BME280;55563;52.416;13.548;2023-02-18T03:44:26;101124.13;;;5.36;100.00
68594;BME280;55563;52.416;13.548;2023-02-18T03:46:28;101127.06;;;5.46;100.00
68594;BME280;55563;52.416;13.548;2023-02-18T03:48:29;101123.25;;;5.42;100.00
68594;BME280;55563;52.416;13.548;2023-02-18T03:50:30;101126.91;;;5.41;100.00
68594;BME280;55563;52.416;13.548;2023-02-18T03:52:31;101122.69;;;5.40;100.00
68594;BME280;55563;52.416;13.548;2023-02-18T03:54:32;101118.47;;;5.39;100.00
68594;BME280;55563;52.416;13.548;2023-02-18T03:56:34;101122.72;;;5.34;100.00
68594;BME280;55563;52.416;13.548;2023-02-18T03:58:34;101123.72;;;5.33;100.00
68594;BME280;55563;52.416;13.548;2023-02-18T04:00:35;101124.75;;;5.32;100.00
68594;BME280;55563;52.416;13.548;2023-02-18T04:02:37;101120.94;;;5.27;100.00
68594;BME280;55563;52.416;13.548;2023-02-18T04:04:38;101119.63;;;5.18;100.00
68594;BME280;55563;52.416;13.548;2023-02-18T04:06:38;101113.63;;;5.18;100.00
68594;BME280;55563;52.416;13.548;2023-02-18T04:08:39;101122.03;;;5.13;100.00
68594;BME280;55563;52.416;13.548;2023-02-18T04:10:39;101119.69;;;5.05;100.00
68594;BME280;55563;52.416;13.548;2023-02-18T04:12:40;101123.75;;;5.01;100.00
68594;BME280;55563;52.416;13.548;2023-02-18T04:14:41;101129.16;;;5.00;100.00
68594;BME280;55563;52.416;13.548;2023-02-18T04:16:42;101126.38;;;4.95;100.00
68594;BME280;55563;52.416;13.548;2023-02-18T04:18:42;101126.53;;;5.00;100.00
68594;BME280;55563;52.416;13.548;2023-02-18T04:20:43;101125.97;;;4.98;100.00
68594;BME280;55563;52.416;13.548;2023-02-18T04:22:45;101135.97;;;5.01;100.00
68594;BME280;55563;52.416;13.548;2023-02-18T04:24:46;101139.38;;;5.01;100.00
68594;BME280;55563;52.416;13.548;2023-02-18T04:26:46;101145.84;;;4.92;100.00
68594;BME280;55563;52.416;13.548;2023-02-18T04:28:47;101138.81;;;4.93;100.00
68594;BME280;55563;52.416;13.548;2023-02-18T04:30:48;101149.25;;;4.93;100.00
68594;BME280;55563;52.416;13.548;2023-02-18T04:32:48;101138.19;;;4.97;100.00
68594;BME280;55563;52.416;13.548;2023-02-18T04:34:49;101147.44;;;4.93;100.00
68594;BME280;55563;52.416;13.548;2023-02-18T04:36:49;101147.03;;;4.90;100.00
68594;BME280;55563;52.416;13.548;2023-02-18T04:38:50;101149.47;;;4.84;100.00
68594;BME280;55563;52.416;13.548;2023-02-18T04:40:50;101156.91;;;4.81;100.00
68594;BME280;55563;52.416;13.548;2023-02-18T04:42:51;101146.09;;;4.77;100.00
68594;BME280;55563;52.416;13.548;2023-02-18T04:44:52;101149.31;;;4.79;100.00
68594;BME280;55563;52.416;13.548;2023-02-18T04:46:52;101153.91;;;4.77;100.00
68594;BME280;55563;52.416;13.548;2023-02-18T04:48:53;101149.88;;;4.81;100.00
68594;BME280;55563;52.416;13.548;2023-02-18T04:50:54;101144.09;;;4.79;100.00
68594;BME280;55563;52.416;13.548;2023-02-18T04:52:55;101145.91;;;4.79;100.00
68594;BME280;55563;52.416;13.548;2023-02-18T04:54:55;101148.28;;;4.80;100.00
68594;BME280;55563;52.416;13.548;2023-02-18T04:56:56;101144.31;;;4.71;100.00
68594;BME280;55563;52.416;13.548;2023-02-18T04:58:57;101148.94;;;4.69;100.00
68594;BME280;55563;52.416;13.548;2023-02-18T05:00:59;101151.50;;;4.76;100.00
68594;BME280;55563;52.416;13.548;2023-02-18T05:03:00;101148.50;;;4.79;100.00
68594;BME280;55563;52.416;13.548;2023-02-18T05:05:01;101151.91;;;4.79;100.00
68594;BME280;55563;52.416;13.548;2023-02-18T05:07:01;101147.72;;;4.72;100.00
68594;BME280;55563;52.416;13.548;2023-02-18T05:09:02;101137.88;;;4.80;100.00
68594;BME280;55563;52.416;13.548;2023-02-18T05:11:06;101146.28;;;4.82;100.00
68594;BME280;55563;52.416;13.548;2023-02-18T05:13:06;101146.66;;;4.86;100.00
68594;BME280;55563;52.416;13.548;2023-02-18T05:15:07;101148.06;;;4.89;100.00
68594;BME280;55563;52.416;13.548;2023-02-18T05:17:08;101145.66;;;4.87;100.00
68594;BME280;55563;52.416;13.548;2023-02-18T05:19:12;101139.63;;;4.93;100.00
68594;BME280;55563;52.416;13.548;2023-02-18T05:21:13;101148.63;;;4.97;100.00
68594;BME280;55563;52.416;13.548;2023-02-18T05:23:13;101142.81;;;4.95;100.00
68594;BME280;55563;52.416;13.548;2023-02-18T05:25:14;101146.00;;;4.97;100.00
68594;BME280;55563;52.416;13.548;2023-02-18T05:27:15;101143.34;;;5.04;100.00
68594;BME280;55563;52.416;13.548;2023-02-18T05:29:15;101134.69;;;5.16;100.00
68594;BME280;55563;52.416;13.548;2023-02-18T05:31:16;101139.50;;;5.13;100.00
68594;BME280;55563;52.416;13.548;2023-02-18T05:33:17;101134.47;;;5.18;100.00
68594;BME280;55563;52.416;13.548;2023-02-18T05:35:17;101137.09;;;5.18;100.00
68594;BME280;55563;52.416;13.548;2023-02-18T05:37:18;101133.69;;;5.17;100.00
68594;BME280;55563;52.416;13.548;2023-02-18T05:39:18;101124.25;;;5.16;100.00
68594;BME280;55563;52.416;13.548;2023-02-18T05:41:20;101135.47;;;5.17;100.00
68594;BME280;55563;52.416;13.548;2023-02-18T05:43:21;101125.63;;;5.19;100.00
68594;BME280;55563;52.416;13.548;2023-02-18T05:45:21;101129.19;;;5.24;100.00
68594;BME280;55563;52.416;13.548;2023-02-18T05:47:22;101113.94;;;5.28;100.00
68594;BME280;55563;52.416;13.548;2023-02-18T05:49:23;101123.97;;;5.31;100.00
68594;BME280;55563;52.416;13.548;2023-02-18T05:51:24;101127.38;;;5.32;100.00
68594;BME280;55563;52.416;13.548;2023-02-18T05:53:24;101120.34;;;5.32;100.00
68594;BME280;55563;52.416;13.548;2023-02-18T05:55:25;101119.91;;;5.35;100.00
68594;BME280;55563;52.416;13.548;2023-02-18T05:57:26;101109.69;;;5.34;100.00
68594;BME280;55563;52.416;13.548;2023-02-18T05:59:28;101122.94;;;5.32;100.00
68594;BME280;55563;52.416;13.548;2023-02-18T06:01:36;101119.06;;;5.41;100.00
68594;BME280;55563;52.416;13.548;2023-02-18T06:03:37;101113.25;;;5.39;100.00
68594;BME280;55563;52.416;13.548;2023-02-18T06:05:42;101128.09;;;5.39;100.00
68594;BME280;55563;52.416;13.548;2023-02-18T06:07:43;101123.88;;;5.38;100.00
68594;BME280;55563;52.416;13.548;2023-02-18T06:09:44;101122.84;;;5.45;100.00
68594;BME280;55563;52.416;13.548;2023-02-18T06:11:45;101124.44;;;5.46;100.00
68594;BME280;55563;52.416;13.548;2023-02-18T06:13:49;101123.84;;;5.44;100.00
68594;BME280;55563;52.416;13.548;2023-02-18T06:15:54;101121.03;;;5.46;100.00
68594;BME280;55563;52.416;13.548;2023-02-18T06:17:55;101127.25;;;5.45;100.00
68594;BME280;55563;52.416;13.548;2023-02-18T06:19:56;101122.41;;;5.48;100.00
68594;BME280;55563;52.416;13.548;2023-02-18T06:21:56;101125.63;;;5.50;100.00
68594;BME280;55563;52.416;13.548;2023-02-18T06:23:57;101115.19;;;5.50;100.00
68594;BME280;55563;52.416;13.548;2023-02-18T06:25:59;101119.97;;;5.53;100.00
68594;BME280;55563;52.416;13.548;2023-02-18T06:28:00;101120.97;;;5.52;100.00
68594;BME280;55563;52.416;13.548;2023-02-18T06:30:01;101124.97;;;5.55;100.00
68594;BME280;55563;52.416;13.548;2023-02-18T06:32:03;101117.97;;;5.55;100.00
68594;BME280;55563;52.416;13.548;2023-02-18T06:34:03;101113.31;;;5.57;100.00
68594;BME280;55563;52.416;13.548;2023-02-18T06:36:06;101121.94;;;5.58;100.00
68594;BME280;55563;52.416;13.548;2023-02-18T06:38:07;101115.50;;;5.60;100.00
68594;BME280;55563;52.416;13.548;2023-02-18T06:40:08;101113.53;;;5.56;100.00
68594;BME280;55563;52.416;13.548;2023-02-18T06:42:09;101117.53;;;5.58;100.00
68594;BME280;55563;52.416;13.548;2023-02-18T06:44:09;101120.94;;;5.59;100.00
68594;BME280;55563;52.416;13.548;2023-02-18T06:46:10;101123.75;;;5.57;100.00
68594;BME280;55563;52.416;13.548;2023-02-18T06:48:11;101116.72;;;5.58;100.00
68594;BME280;55563;52.416;13.548;2023-02-18T06:50:13;101112.31;;;5.58;100.00
68594;BME280;55563;52.416;13.548;2023-02-18T06:52:13;101115.28;;;5.62;100.00
68594;BME280;55563;52.416;13.548;2023-02-18T06:54:14;101103.03;;;5.62;100.00
68594;BME280;55563;52.416;13.548;2023-02-18T06:56:15;101102.63;;;5.65;100.00
68594;BME280;55563;52.416;13.548;2023-02-18T06:58:15;101109.41;;;5.66;100.00
68594;BME280;55563;52.416;13.548;2023-02-18T07:00:17;101100.78;;;5.66;100.00
68594;BME280;55563;52.416;13.548;2023-02-18T07:02:18;101097.97;;;5.67;100.00
68594;BME280;55563;52.416;13.548;2023-02-18T07:04:18;101095.31;;;5.74;100.00
68594;BME280;55563;52.416;13.548;2023-02-18T07:06:19;101103.16;;;5.74;100.00
68594;BME280;55563;52.416;13.548;2023-02-18T07:08:20;101109.72;;;5.77;100.00
68594;BME280;55563;52.416;13.548;2023-02-18T07:10:21;101095.69;;;5.78;100.00
68594;BME280;55563;52.416;13.548;2023-02-18T07:12:21;101096.28;;;5.80;100.00
68594;BME280;55563;52.416;13.548;2023-02-18T07:14:22;101091.22;;;5.85;100.00
68594;BME280;55563;52.416;13.548;2023-02-18T07:16:24;101091.41;;;5.90;100.00
68594;BME280;55563;52.416;13.548;2023-02-18T07:18:24;101094.22;;;5.88;100.00
68594;BME280;55563;52.416;13.548;2023-02-18T07:20:25;101087.56;;;5.92;100.00
68594;BME280;55563;52.416;13.548;2023-02-18T07:22:26;101092.97;;;5.91;100.00
68594;BME280;55563;52.416;13.548;2023-02-18T07:24:27;101082.34;;;5.92;100.00
68594;BME280;55563;52.416;13.548;2023-02-18T07:26:27;101088.91;;;5.95;100.00
68594;BME280;55563;52.416;13.548;2023-02-18T07:28:28;101097.53;;;5.95;100.00
68594;BME280;55563;52.416;13.548;2023-02-18T07:30:29;101094.72;;;5.97;100.00
68594;BME280;55563;52.416;13.548;2023-02-18T07:32:29;101086.91;;;5.97;100.00
68594;BME280;55563;52.416;13.548;2023-02-18T07:34:31;101081.69;;;5.97;100.00
68594;BME280;55563;52.416;13.548;2023-02-18T07:36:31;101085.09;;;5.97;100.00
68594;BME280;55563;52.416;13.548;2023-02-18T07:38:32;101087.25;;;6.00;100.00
68594;BME280;55563;52.416;13.548;2023-02-18T07:40:32;101077.41;;;6.02;100.00
68594;BME280;55563;52.416;13.548;2023-02-18T07:42:33;101091.03;;;6.04;100.00
68594;BME280;55563;52.416;13.548;2023-02-18T07:44:34;101093.06;;;6.02;100.00
68594;BME280;55563;52.416;13.548;2023-02-18T07:46:39;101089.44;;;6.03;100.00
68594;BME280;55563;52.416;13.548;2023-02-18T07:48:40;101074.59;;;6.04;100.00
68594;BME280;55563;52.416;13.548;2023-02-18T07:50:43;101088.41;;;6.04;100.00
68594;BME280;55563;52.416;13.548;2023-02-18T07:52:44;101071.41;;;6.02;100.00
68594;BME280;55563;52.416;13.548;2023-02-18T07:54:44;101068.13;;;6.06;100.00
68594;BME280;55563;52.416;13.548;2023-02-18T07:56:45;101064.50;;;6.07;100.00
68594;BME280;55563;52.416;13.548;2023-02-18T07:58:50;101070.53;;;6.08;100.00
68594;BME280;55563;52.416;13.548;2023-02-18T08:00:52;101068.88;;;6.13;100.00
68594;BME280;55563;52.416;13.548;2023-02-18T08:02:54;101071.34;;;6.08;100.00
68594;BME280;55563;52.416;13.548;2023-02-18T08:04:54;101079.56;;;6.05;100.00
68594;BME280;55563;52.416;13.548;2023-02-18T08:06:55;101076.63;;;6.02;100.00
68594;BME280;55563;52.416;13.548;2023-02-18T08:08:56;101071.41;;;6.02;100.00
68594;BME280;55563;52.416;13.548;2023-02-18T08:10:59;101070.25;;;5.98;100.00
68594;BME280;55563;52.416;13.548;2023-02-18T08:13:02;101063.41;;;5.97;100.00
68594;BME280;55563;52.416;13.548;2023-02-18T08:15:02;101063.56;;;6.02;100.00
68594;BME280;55563;52.416;13.548;2023-02-18T08:17:07;101059.72;;;6.04;100.00
68594;BME280;55563;52.416;13.548;2023-02-18T08:19:10;101052.69;;;6.05;100.00
68594;BME280;55563;52.416;13.548;2023-02-18T08:21:11;101049.16;;;5.99;100.00
68594;BME280;55563;52.416;13.548;2023-02-18T08:23:13;101053.94;;;6.02;100.00
68594;BME280;55563;52.416;13.548;2023-02-18T08:25:14;101054.38;;;5.99;100.00
68594;BME280;55563;52.416;13.548;2023-02-18T08:27:15;101042.69;;;6.02;100.00
68594;BME280;55563;52.416;13.548;2023-02-18T08:29:15;101032.47;;;6.00;100.00
68594;BME280;55563;52.416;13.548;2023-02-18T08:31:18;101033.50;;;5.99;100.00
68594;BME280;55563;52.416;13.548;2023-02-18T08:33:21;101036.53;;;5.96;100.00
68594;BME280;55563;52.416;13.548;2023-02-18T08:35:22;101037.13;;;5.98;100.00
68594;BME280;55563;52.416;13.548;2023-02-18T08:37:22;101034.38;;;5.93;100.00
68594;BME280;55563;52.416;13.548;2023-02-18T08:39:23;101030.09;;;5.99;100.00
68594;BME280;55563;52.416;13.548;2023-02-18T08:41:24;101032.31;;;5.95;100.00
68594;BME280;55563;52.416;13.548;2023-02-18T08:43:25;101022.69;;;5.96;100.00
68594;BME280;55563;52.416;13.548;2023-02-18T08:45:25;101022.94;;;5.94;100.00
68594;BME280;55563;52.416;13.548;2023-02-18T08:47:26;101019.50;;;5.94;100.00
68594;BME280;55563;52.416;13.548;2023-02-18T08:49:26;101018.28;;;5.96;100.00
68594;BME280;55563;52.416;13.548;2023-02-18T08:51:27;101015.25;;;5.99;100.00
68594;BME280;55563;52.416;13.548;2023-02-18T08:53:28;101007.97;;;6.01;100.00
68594;BME280;55563;52.416;13.548;2023-02-18T08:55:30;101002.41;;;5.98;100.00
68594;BME280;55563;52.416;13.548;2023-02-18T08:57:31;101004.22;;;5.97;100.00
68594;BME280;55563;52.416;13.548;2023-02-18T08:59:31;101004.06;;;5.92;100.00
68594;BME280;55563;52.416;13.548;2023-02-18T09:01:32;101008.69;;;5.90;100.00
68594;BME280;55563;52.416;13.548;2023-02-18T09:03:33;101005.53;;;5.88;100.00
68594;BME280;55563;52.416;13.548;2023-02-18T09:05:34;101015.97;;;5.88;100.00
68594;BME280;55563;52.416;13.548;2023-02-18T09:07:36;101012.56;;;5.88;100.00
68594;BME280;55563;52.416;13.548;2023-02-18T09:09:36;101002.47;;;5.91;100.00
68594;BME280;55563;52.416;13.548;2023-02-18T09:11:37;101007.47;;;5.93;100.00
68594;BME280;55563;52.416;13.548;2023-02-18T09:13:38;101000.44;;;5.93;100.00
68594;BME280;55563;52.416;13.548;2023-02-18T09:15:38;100996.25;;;5.92;100.00
68594;BME280;55563;52.416;13.548;2023-02-18T09:17:39;100984.28;;;5.85;100.00
68594;BME280;55563;52.416;13.548;2023-02-18T09:19:40;100977.53;;;5.95;100.00
68594;BME280;55563;52.416;13.548;2023-02-18T09:21:40;100979.13;;;5.96;100.00
68594;BME280;55563;52.416;13.548;2023-02-18T09:23:41;100973.25;;;6.01;100.00
68594;BME280;55563;52.416;13.548;2023-02-18T09:25:42;100974.94;;;5.95;100.00
68594;BME280;55563;52.416;13.548;2023-02-18T09:27:43;100973.44;;;5.88;100.00
68594;BME280;55563;52.416;13.548;2023-02-18T09:29:43;100965.28;;;5.96;100.00
68594;BME280;55563;52.416;13.548;2023-02-18T09:31:44;100955.50;;;5.73;100.00
68594;BME280;55563;52.416;13.548;2023-02-18T09:33:47;100962.31;;;5.74;100.00
68594;BME280;55563;52.416;13.548;2023-02-18T09:35:48;100956.44;;;5.79;100.00
68594;BME280;55563;52.416;13.548;2023-02-18T09:37:49;100953.56;;;5.68;100.00
68594;BME280;55563;52.416;13.548;2023-02-18T09:39:50;100952.31;;;6.07;100.00
68594;BME280;55563;52.416;13.548;2023-02-18T09:41:52;100943.31;;;5.85;100.00
68594;BME280;55563;52.416;13.548;2023-02-18T09:44:05;100938.78;;;5.99;100.00
68594;BME280;55563;52.416;13.548;2023-02-18T09:46:18;100937.97;;;5.98;100.00
68594;BME280;55563;52.416;13.548;2023-02-18T09:48:26;100946.69;;;5.92;100.00
68594;BME280;55563;52.416;13.548;2023-02-18T09:50:30;100926.03;;;5.91;100.00
68594;BME280;55563;52.416;13.548;2023-02-18T09:52:33;100916.47;;;5.85;100.00
68594;BME280;55563;52.416;13.548;2023-02-18T09:54:35;100915.28;;;5.81;100.00
68594;BME280;55563;52.416;13.548;2023-02-18T09:56:36;100911.75;;;5.75;100.00
68594;BME280;55563;52.416;13.548;2023-02-18T09:58:38;100915.25;;;5.69;100.00
68594;BME280;55563;52.416;13.548;2023-02-18T10:00:42;100898.28;;;5.78;100.00
68594;BME280;55563;52.416;13.548;2023-02-18T10:02:53;100881.81;;;5.78;100.00
68594;BME280;55563;52.416;13.548;2023-02-18T10:04:56;100892.25;;;5.78;100.00
68594;BME280;55563;52.416;13.548;2023-02-18T10:06:58;100898.06;;;5.80;100.00
68594;BME280;55563;52.416;13.548;2023-02-18T10:09:10;100873.41;;;5.76;100.00
68594;BME280;55563;52.416;13.548;2023-02-18T10:11:22;100880.31;;;5.88;100.00
68594;BME280;55563;52.416;13.548;2023-02-18T10:13:28;100882.06;;;5.94;100.00
68594;BME280;55563;52.416;13.548;2023-02-18T10:15:30;100881.69;;;5.91;100.00
68594;BME280;55563;52.416;13.548;2023-02-18T10:17:32;100881.59;;;5.97;100.00
68594;BME280;55563;52.416;13.548;2023-02-18T10:19:34;100884.53;;;5.89;100.00
68594;BME280;55563;52.416;13.548;2023-02-18T10:21:36;100881.38;;;5.99;100.00
68594;BME280;55563;52.416;13.548;2023-02-18T10:23:40;100882.59;;;5.96;100.00
68594;BME280;55563;52.416;13.548;2023-02-18T10:25:44;100867.97;;;5.95;100.00
68594;BME280;55563;52.416;13.548;2023-02-18T10:27:46;100849.28;;;5.98;100.00
68594;BME280;55563;52.416;13.548;2023-02-18T10:29:48;100839.41;;;6.00;100.00
68594;BME280;55563;52.416;13.548;2023-02-18T10:32:18;100841.09;;;5.95;100.00
68594;BME280;55563;52.416;13.548;2023-02-18T10:36:37;100825.75;;;5.87;100.00
68594;BME280;55563;52.416;13.548;2023-02-18T10:39:31;100811.97;;;5.98;100.00
68594;BME280;55563;52.416;13.548;2023-02-18T10:41:27;100802.13;;;6.11;100.00
68594;BME280;55563;52.416;13.548;2023-02-18T10:43:56;100801.91;;;6.13;100.00
68594;BME280;55563;52.416;13.548;2023-02-18T10:50:48;100772.81;;;5.98;100.00
68594;BME280;55563;52.416;13.548;2023-02-18T10:52:51;100758.88;;;6.16;100.00
68594;BME280;55563;52.416;13.548;2023-02-18T10:55:12;100756.63;;;6.31;100.00
68594;BME280;55563;52.416;13.548;2023-02-18T10:57:20;100747.09;;;6.25;100.00
68594;BME280;55563;52.416;13.548;2023-02-18T10:59:28;100740.19;;;6.19;100.00
68594;BME280;55563;52.416;13.548;2023-02-18T11:01:31;100739.81;;;6.15;100.00
68594;BME280;55563;52.416;13.548;2023-02-18T11:03:43;100738.94;;;6.21;100.00
68594;BME280;55563;52.416;13.548;2023-02-18T11:05:47;100724.19;;;6.27;100.00
68594;BME280;55563;52.416;13.548;2023-02-18T11:07:51;100716.13;;;6.17;100.00
68594;BME280;55563;52.416;13.548;2023-02-18T11:09:54;100717.03;;;6.22;100.00
68594;BME280;55563;52.416;13.548;2023-02-18T11:12:16;100695.25;;;6.17;100.00
68594;BME280;55563;52.416;13.548;2023-02-18T11:17:48;100692.41;;;6.18;100.00